CheckWX is a tool to help pilots better visualize weather data.  It is not intended as a substitute for an official pre-flight weather briefing.

09:00:04 UTC

EYPA METAR
Palanga International Airport
Palanga, Lithuania
Current

40 mins ago

EYPA 290820Z 20009KT 9999 SCT014 04/02 Q1005 R19/2///95
Observed
Feb-29 @ 08:20 UTC
Wind
  • 200° at 9 KTS
Visibility
10,000+ meters
Flight Rules
VFR
Cloud Levels
  • Scattered at 1,400' AGL
Temperature
C / 39°F
Dewpoint
C / 36°F
Humidity
87%
Altimeter
29.68" Hg
Pressure
1004.92 hPa
Previous

1 hour ago

EYPA 290750Z 21007KT 180V240 9999 BKN014 04/02 Q1005 R19/2///95
Observed
Feb-29 @ 07:50 UTC
Wind
  • 210° at 7 KTS
Visibility
10,000+ meters
Flight Rules
MVFR
Cloud Levels
  • Broken at 1,400' AGL
Temperature
C / 39°F
Dewpoint
C / 36°F
Humidity
87%
Altimeter
29.68" Hg
Pressure
1004.92 hPa
Previous

2 hours ago

EYPA 290720Z 20007KT 9999 SCT020 BKN170 04/02 Q1005 R19/2///95
Observed
Feb-29 @ 07:20 UTC
Wind
  • 200° at 7 KTS
Visibility
10,000+ meters
Flight Rules
VFR
Cloud Levels
  • Scattered at 2,000' AGL
  • Broken at 17,000' AGL
Temperature
C / 39°F
Dewpoint
C / 36°F
Humidity
87%
Altimeter
29.68" Hg
Pressure
1004.92 hPa